Flight Track Log - Related Links

Times and Time Zones

All times are in EDT time to prevent confusion due to time zone crossing. See the N600TR flight status page for this flight to view local times or setup timezone preferences in your user account.

Time Position Orientation Groundspeed Altitude Reporting Facility
EDT Latitude Longitude Course Direction KTS MPH feet Rate Location/Type
Sun 07:55:13 PM 33.6500 -84.4000 24° Northeast 163 188 2,300  Level Atlanta TRACON
Sun 07:56:13 PM 33.6667 -84.3333 73° East 227 261 3,800 1,737 Climbing Atlanta TRACON
Sun 07:57:07 PM 33.7000 -84.2667 59° Northeast 250 288 5,600 2,250 Climbing Atlanta TRACON
Sun 07:58:13 PM 33.7167 -84.1667 79° East 272 313 8,300 2,000 Climbing Atlanta TRACON
Sun 07:59:00 PM 34.1290 -84.3101 North  Level FlightAware Approximate
Sun 07:59:07 PM 33.7833 -84.1500 12° North 294 338 9,600  Level Atlanta TRACON
Sun 08:00:00 PM 34.2267 -84.2856 24° Northeast  Level FlightAware Approximate
Sun 08:00:45 PM 33.9089 -84.2492 327° Northwest 370 426 9,900  Level Atlanta Center
Sun 08:01:45 PM 34.0111 -84.2844 344° North 374 430 11,900 1,950 Climbing Atlanta Center
Sun 08:02:45 PM 34.1175 -84.2972 354° North 379 436 13,800 1,950 Climbing Atlanta Center
Sun 08:03:45 PM 34.2281 -84.2950 North 391 450 15,800 1,700 Climbing Atlanta Center
Sun 08:04:45 PM 34.3389 -84.2853 North 385 443 17,200 1,400 Climbing Atlanta Center
Sun 08:05:45 PM 34.4472 -84.2453 17° North 396 456 18,600 1,250 Climbing Atlanta Center
Sun 08:06:45 PM 34.5539 -84.1953 21° North 402 463 19,700 1,100 Climbing Atlanta Center
Sun 08:07:45 PM 34.6519 -84.1169 33° Northeast 415 478 20,800 1,200 Climbing Atlanta Center
Sun 08:08:45 PM 34.7647 -84.0361 30° Northeast 421 484 22,100 1,150 Climbing Atlanta Center
Sun 08:09:45 PM 34.8692 -83.9603 31° Northeast 432 497 23,100 450 Climbing Atlanta Center
Sun 08:10:45 PM 34.9753 -83.8892 29° Northeast 432 497 23,000 -100 Descending Atlanta Center
Sun 08:11:45 PM 35.0356 -83.7547 61° Northeast 416 479 22,900 -600 Descending Atlanta Center
Sun 08:12:45 PM 35.0833 -83.6150 67° East 429 494 21,800 -2,050 Descending Atlanta Center
Sun 08:13:45 PM 35.1203 -83.4700 73° East 434 499 18,800 -2,850 Descending Atlanta Center
Sun 08:14:45 PM 35.1508 -83.3353 74° East 429 494 16,100 -2,900 Descending Atlanta Center
Sun 08:15:45 PM 35.1856 -83.2053 72° East 415 478 13,000 -2,350 Descending Atlanta Center
Sun 08:16:45 PM 35.2094 -83.0703 78° East 398 458 11,400 -1,000 Descending Atlanta Center
Sun 08:17:45 PM 35.2211 -82.9481 83° East 369 425 11,000 -600 Descending Atlanta Center
Sun 08:18:45 PM 35.2325 -82.8386 83° East 356 410 10,200 -800 Descending Atlanta Center
Sun 08:19:45 PM 35.2672 -82.7517 64° Northeast 292 336 9,400 -1,050 Descending Atlanta Center
Sun 08:20:45 PM 35.3464 -82.7403 North 247 284 8,100 -700 Descending Atlanta Center
Sun 08:21:45 PM 35.4256 -82.7467 356° North 258 297 8,000 -250 Descending Atlanta Center
Sun 08:22:45 PM 35.5069 -82.7506 358° North 276 318 7,600 -800 Descending Atlanta Center
Sun 08:23:45 PM 35.5822 -82.7467 North 271 312 6,400 -950 Descending Atlanta Center
Sun 08:24:45 PM 35.6231 -82.6872 50° Northeast 223 257 5,700 -700 Descending Atlanta Center
Sun 08:26:00 PM 35.5379 -82.5879 141° Southeast  Level FlightAware Approximate
Sun 08:33:00 PM 35.4333 -82.5333 287° West  Level FlightAware Approximate
Sun 08:34:00 PM 35.4362 -82.5418 287° West  Level Estimated
Sun 08:35:00 PM 35.4362 -82.5418 287° West  Level Estimated
Sun 08:36:00 PM 35.4362 -82.5418 287° West  Level Estimated
Sun 08:37:00 PM 35.4362 -82.5418 287° West  Level Estimated
Sun 08:38:00 PM 35.4362 -82.5418 287° West  Level Estimated
Sun 08:39:00 PM 35.4362 -82.5418 287° West  Level Estimated
Sun 08:40:00 PM 35.4362 -82.5418 287° West  Level Estimated

Login

Don't have an account? Register now (free) for customized features, flight alerts, and more!